Time;durP1;ratioP1;P1;durP2;ratioP2;P2;SDS_P1;SDS_P2;PMS_P1;PMS_P2;Temp;Humidity;BMP_temperature;BMP_pressure;BME280_temperature;BME280_humidity;BME280_pressure;Samples;Min_cycle;Max_cycle;Signal;HPM_P1;HPM_P2
2023/09/25 00:00:45;;;;;;;;;3.00;3.00;;;;;17.92;59.37;101595.09;5039218;28;45521;-66
2023/09/25 00:03:11;;;;;;;;;4.00;3.75;;;;;17.78;59.77;101579.56;5038764;28;47291;-66
2023/09/25 00:05:37;;;;;;;;;3.00;3.00;;;;;17.87;60.17;101595.34;5039248;28;45888;-66
2023/09/25 00:08:02;;;;;;;;;3.75;3.00;;;;;17.92;60.41;101605.91;5044210;28;45394;-66
2023/09/25 00:10:29;;;;;;;;;4.75;4.00;;;;;17.84;60.24;101603.56;5045205;28;45384;-66
2023/09/25 00:12:55;;;;;;;;;2.75;2.75;;;;;17.82;60.22;101612.69;5038877;28;46171;-66
2023/09/25 00:15:20;;;;;;;;;4.25;4.25;;;;;17.81;60.62;101613.63;5038788;28;45468;-66
2023/09/25 00:17:45;;;;;;;;;3.50;3.50;;;;;17.78;60.49;101620.06;5032908;28;45507;-66
2023/09/25 00:20:11;;;;;;;;;4.00;4.00;;;;;17.74;60.33;101605.84;5044120;28;45304;-66
2023/09/25 00:22:37;;;;;;;;;3.00;3.00;;;;;17.59;60.62;101590.38;5039165;28;46224;-66
2023/09/25 00:25:04;;;;;;;;;4.25;4.25;;;;;17.56;60.74;101590.53;5038876;28;45740;-66
2023/09/25 00:27:31;;;;;;;;;5.50;5.25;;;;;17.64;60.47;101618.06;5037744;28;45338;-66
2023/09/25 00:29:57;;;;;;;;;6.25;4.75;;;;;17.54;60.77;101606.81;5053310;28;45466;-66
2023/09/25 00:32:22;;;;;;;;;5.25;5.00;;;;;17.56;60.76;101614.84;5038629;28;46337;-66
2023/09/25 00:34:48;;;;;;;;;4.00;4.00;;;;;17.51;61.13;101614.19;5052354;28;45315;-66
2023/09/25 00:37:13;;;;;;;;;5.00;4.50;;;;;17.56;61.04;101623.81;5040523;28;45467;-66
2023/09/25 00:39:39;;;;;;;;;4.00;4.00;;;;;17.48;61.42;101617.91;5057383;28;45445;-66
2023/09/25 00:42:05;;;;;;;;;5.75;4.00;;;;;17.49;61.63;101624.16;5038758;28;47071;-66
2023/09/25 00:44:30;;;;;;;;;4.75;4.75;;;;;17.48;61.68;101615.19;5055300;28;45324;-66
2023/09/25 00:46:56;;;;;;;;;4.75;3.50;;;;;17.48;61.46;101611.63;5038588;28;45257;-66
2023/09/25 00:49:21;;;;;;;;;4.25;4.25;;;;;17.44;61.92;101608.22;5038828;28;45291;-66
2023/09/25 00:51:48;;;;;;;;;3.00;3.00;;;;;17.34;62.01;101596.06;5038602;28;45416;-66
2023/09/25 00:54:15;;;;;;;;;5.50;4.50;;;;;17.39;62.20;101608.41;5040724;28;45549;-66
2023/09/25 00:56:40;;;;;;;;;4.50;4.50;;;;;17.30;61.82;101600.75;5038925;28;45481;-66
2023/09/25 00:59:06;;;;;;;;;5.75;5.00;;;;;17.29;62.04;101601.72;5038561;28;45606;-66
2023/09/25 01:01:33;;;;;;;;;5.00;5.00;;;;;17.26;62.19;101601.84;5038197;28;46232;-66
2023/09/25 01:03:59;;;;;;;;;8.00;5.00;;;;;17.21;62.30;101599.34;5042726;28;45720;-66
2023/09/25 01:06:24;;;;;;;;;6.25;5.50;;;;;17.24;62.37;101609.16;5037376;28;45481;-66
2023/09/25 01:08:49;;;;;;;;;5.00;5.00;;;;;17.21;62.63;101610.16;5055155;28;45375;-66
2023/09/25 01:11:15;;;;;;;;;5.50;3.25;;;;;17.10;62.79;101590.88;5051128;28;52634;-66
2023/09/25 01:13:40;;;;;;;;;6.00;4.00;;;;;17.06;63.03;101583.88;5037898;28;45291;-66
2023/09/25 01:16:05;;;;;;;;;7.00;5.50;;;;;17.12;63.04;101597.06;5038368;28;45496;-66
2023/09/25 01:18:31;;;;;;;;;4.25;3.75;;;;;17.10;62.95;101603.50;5055866;28;45428;-66
2023/09/25 01:20:56;;;;;;;;;3.50;2.50;;;;;17.06;63.16;101599.16;5038088;28;51801;-66
2023/09/25 01:23:22;;;;;;;;;5.00;4.00;;;;;17.08;63.33;101600.00;5038081;28;45331;-66
2023/09/25 01:25:47;;;;;;;;;3.00;3.00;;;;;16.97;63.02;101581.59;5037405;28;45309;-66
2023/09/25 01:28:13;;;;;;;;;4.50;4.25;;;;;17.02;63.30;101591.25;5040136;28;53308;-66
2023/09/25 01:30:38;;;;;;;;;3.75;3.00;;;;;17.02;63.43;101595.75;5051317;28;45939;-66
2023/09/25 01:33:04;;;;;;;;;3.50;2.25;;;;;16.96;63.25;101585.25;5022355;28;45347;-66
2023/09/25 01:35:29;;;;;;;;;3.50;3.50;;;;;16.94;63.54;101585.31;5041827;28;45595;-66
2023/09/25 01:38:00;;;;;;;;;5.00;4.00;;;;;17.03;63.40;101611.00;5055068;28;45491;-66
2023/09/25 01:40:27;;;;;;;;;3.00;3.00;;;;;17.02;63.06;101603.84;5041366;28;45406;-66
2023/09/25 01:42:52;;;;;;;;;2.00;2.00;;;;;17.00;62.48;101609.31;5030309;28;45724;-66
2023/09/25 01:45:19;;;;;;;;;3.75;3.75;;;;;17.00;63.34;101603.03;5054030;28;45352;-66
2023/09/25 01:47:50;;;;;;;;;2.00;2.00;;;;;17.02;63.25;101607.44;5056734;28;45588;-66
2023/09/25 01:50:21;;;;;;;;;6.00;3.75;;;;;16.99;63.30;101604.88;5061397;28;46342;-66
2023/09/25 01:52:48;;;;;;;;;4.50;4.50;;;;;17.01;63.25;101600.28;5048084;28;45520;-66
2023/09/25 01:55:14;;;;;;;;;3.75;3.75;;;;;17.01;63.42;101599.41;5053532;28;45508;-66
2023/09/25 01:57:39;;;;;;;;;4.75;4.75;;;;;16.95;63.35;101587.06;5023206;28;45665;-66
2023/09/25 02:00:09;;;;;;;;;5.75;4.50;;;;;16.93;63.36;101586.25;5039741;28;47185;-66
2023/09/25 02:02:38;;;;;;;;;5.50;4.25;;;;;16.94;63.43;101593.41;5050040;28;45423;-66
2023/09/25 02:05:05;;;;;;;;;2.50;2.50;;;;;16.87;63.27;101572.19;5041418;28;45375;-66
2023/09/25 02:07:31;;;;;;;;;8.00;3.00;;;;;16.96;63.34;101585.25;5049255;28;45748;-66
2023/09/25 02:09:56;;;;;;;;;3.75;3.75;;;;;16.96;63.74;101591.53;5051574;28;46475;-66
2023/09/25 02:12:21;;;;;;;;;2.75;2.75;;;;;16.93;63.37;101591.66;5041019;28;45301;-66
2023/09/25 02:14:49;;;;;;;;;2.00;2.00;;;;;16.92;63.80;101589.91;5041048;28;45502;-66
2023/09/25 02:17:14;;;;;;;;;4.50;4.50;;;;;16.90;63.60;101585.53;5034444;28;45450;-66
2023/09/25 02:19:40;;;;;;;;;5.00;3.75;;;;;16.91;63.57;101579.22;5042853;28;48360;-66
2023/09/25 02:22:06;;;;;;;;;5.75;4.25;;;;;16.88;63.71;101587.44;5060866;28;45352;-66
2023/09/25 02:24:34;;;;;;;;;4.00;4.00;;;;;16.90;64.02;101591.78;5061085;28;45426;-66
2023/09/25 02:26:59;;;;;;;;;4.00;4.00;;;;;16.88;64.02;101591.00;5053960;28;45387;-66
2023/09/25 02:29:25;;;;;;;;;5.50;4.00;;;;;16.87;63.81;101597.31;5041926;28;46124;-66
2023/09/25 02:31:50;;;;;;;;;4.75;3.75;;;;;16.77;64.04;101587.84;5040104;28;45623;-66
2023/09/25 02:34:16;;;;;;;;;5.00;4.00;;;;;16.77;63.85;101595.94;5040759;28;45526;-66
2023/09/25 02:36:42;;;;;;;;;4.00;4.00;;;;;16.77;64.04;101586.06;5036149;28;45934;-66
2023/09/25 02:39:07;;;;;;;;;6.00;5.00;;;;;16.81;63.81;101602.97;5040497;28;46441;-66
2023/09/25 02:41:33;;;;;;;;;4.25;3.25;;;;;16.72;64.33;101585.38;5040371;28;45339;-66
2023/09/25 02:43:58;;;;;;;;;4.00;4.00;;;;;16.74;63.89;101594.28;5043789;28;45513;-66
2023/09/25 02:46:24;;;;;;;;;4.00;4.00;;;;;16.75;63.98;101587.06;5043502;28;45476;-66
2023/09/25 02:48:49;;;;;;;;;4.50;4.50;;;;;16.75;64.11;101587.06;5051807;28;55196;-66
2023/09/25 02:51:14;;;;;;;;;5.00;5.00;;;;;16.68;64.32;101581.06;5039965;28;52956;-66
2023/09/25 02:53:39;;;;;;;;;3.00;3.00;;;;;16.68;64.52;101578.38;5048620;28;57769;-66
2023/09/25 02:56:05;;;;;;;;;3.50;3.00;;;;;16.49;64.21;101546.84;5045173;28;45542;-66
2023/09/25 02:58:31;;;;;;;;;3.00;3.00;;;;;16.66;64.29;101582.97;5040390;28;45494;-66
2023/09/25 03:00:58;;;;;;;;;5.75;3.00;;;;;16.60;64.39;101575.13;5022109;28;45599;-66
2023/09/25 03:03:23;;;;;;;;;3.50;3.25;;;;;16.56;64.36;101576.25;5051594;28;47179;-66
2023/09/25 03:05:48;;;;;;;;;4.25;4.25;;;;;16.62;64.74;101595.72;5045384;28;52826;-66
2023/09/25 03:08:14;;;;;;;;;3.00;3.00;;;;;16.63;64.92;101594.75;5060267;28;45295;-66
2023/09/25 03:10:39;;;;;;;;;5.00;4.00;;;;;16.63;64.69;101597.44;5045108;28;45362;-66
2023/09/25 03:13:05;;;;;;;;;5.75;4.00;;;;;16.62;64.78;101597.50;5040004;28;45317;-66
2023/09/25 03:15:30;;;;;;;;;3.25;3.25;;;;;16.56;64.84;101592.41;5039954;28;45362;-66
2023/09/25 03:17:55;;;;;;;;;4.00;4.00;;;;;16.59;64.87;101595.84;5053061;28;45339;-66
2023/09/25 03:20:21;;;;;;;;;7.00;5.00;;;;;16.44;64.80;101572.25;5044738;28;45384;-66
2023/09/25 03:22:46;;;;;;;;;5.25;4.00;;;;;16.58;64.71;101596.78;5040180;28;45302;-65
2023/09/25 03:25:13;;;;;;;;;4.25;3.75;;;;;16.60;64.96;101599.41;5039835;28;45494;-66
2023/09/25 03:27:38;;;;;;;;;6.00;5.00;;;;;16.49;64.75;101592.66;5039895;28;45403;-66
2023/09/25 03:30:05;;;;;;;;;3.00;3.00;;;;;16.48;64.73;101587.34;5054718;28;45263;-66
2023/09/25 03:32:31;;;;;;;;;3.50;3.50;;;;;16.54;64.68;101599.66;5031143;28;45524;-66
2023/09/25 03:34:56;;;;;;;;;3.75;3.00;;;;;16.47;64.59;101594.56;5044043;28;45510;-66
2023/09/25 03:37:22;;;;;;;;;5.00;5.00;;;;;16.52;64.96;101602.41;5039768;28;45385;-66
2023/09/25 03:39:47;;;;;;;;;4.25;4.25;;;;;16.51;64.90;101611.47;5039532;28;45513;-66
2023/09/25 03:42:12;;;;;;;;;5.50;5.00;;;;;16.47;64.90;101607.13;5038506;28;45476;-66
2023/09/25 03:44:38;;;;;;;;;4.00;4.00;;;;;16.50;65.19;101620.47;5056884;28;45349;-66
2023/09/25 03:47:03;;;;;;;;;3.25;3.25;;;;;16.37;65.02;101603.09;5054074;28;51977;-66
2023/09/25 03:49:28;;;;;;;;;3.25;3.25;;;;;16.40;65.02;101616.44;5045488;28;45403;-66
2023/09/25 03:51:53;;;;;;;;;3.25;3.25;;;;;16.38;64.80;101613.81;5039670;28;45453;-66
2023/09/25 03:54:19;;;;;;;;;4.25;4.25;;;;;16.41;65.10;101615.50;5053226;28;45626;-66
2023/09/25 03:56:44;;;;;;;;;4.50;3.25;;;;;16.41;64.98;101620.91;5051934;28;47047;-66
2023/09/25 03:59:11;;;;;;;;;4.00;4.00;;;;;16.20;65.06;101583.13;5038876;28;52669;-66
2023/09/25 04:01:36;;;;;;;;;3.75;3.75;;;;;16.26;65.15;101592.78;5045083;28;46792;-66
2023/09/25 04:04:02;;;;;;;;;5.00;4.00;;;;;16.36;65.38;101613.00;5044869;28;45361;-66
2023/09/25 04:06:27;;;;;;;;;3.25;3.25;;;;;16.34;65.44;101617.59;5051541;28;45414;-66
2023/09/25 04:08:52;;;;;;;;;5.00;4.00;;;;;16.28;65.25;101617.84;5058093;28;45376;-66
2023/09/25 04:11:18;;;;;;;;;4.00;4.00;;;;;16.30;65.35;101621.34;5039465;28;45327;-66
2023/09/25 04:13:43;;;;;;;;;6.25;5.00;;;;;16.27;65.36;101622.34;5030056;28;45265;-66
2023/09/25 04:16:12;;;;;;;;;5.00;5.00;;;;;16.19;65.37;101616.41;5039013;28;46237;-66
2023/09/25 04:18:38;;;;;;;;;4.75;4.75;;;;;16.18;65.14;101614.66;5057195;28;45371;-66
2023/09/25 04:21:06;;;;;;;;;4.25;4.00;;;;;16.32;65.37;101632.06;5037993;28;45490;-66
2023/09/25 04:23:31;;;;;;;;;4.00;4.00;;;;;16.29;65.48;101635.75;5038879;28;45312;-66
2023/09/25 04:26:00;;;;;;;;;3.00;3.00;;;;;16.22;65.35;101637.84;5039022;28;45339;-66
2023/09/25 04:28:28;;;;;;;;;4.75;3.00;;;;;16.20;65.36;101628.06;5041877;28;45340;-66
2023/09/25 04:30:54;;;;;;;;;3.25;3.25;;;;;16.11;65.47;101619.41;5049386;28;45450;-66
2023/09/25 04:33:19;;;;;;;;;5.00;5.00;;;;;16.18;65.25;101630.81;5052458;28;45489;-66
2023/09/25 04:35:45;;;;;;;;;3.00;3.00;;;;;16.10;65.63;101623.06;5045205;28;45394;-66
2023/09/25 04:38:10;;;;;;;;;3.25;2.75;;;;;16.18;65.63;101635.34;5040477;28;45471;-66
2023/09/25 04:40:36;;;;;;;;;3.00;3.00;;;;;16.15;65.53;101638.16;5039053;28;45411;-66
2023/09/25 04:43:01;;;;;;;;;4.25;3.25;;;;;16.05;65.50;101633.13;5036418;28;45535;-66
2023/09/25 04:45:29;;;;;;;;;3.50;3.25;;;;;16.06;65.67;101636.72;5049453;28;45438;-66
2023/09/25 04:47:55;;;;;;;;;5.00;4.00;;;;;15.98;65.98;101634.31;5034377;28;45582;-66
2023/09/25 04:50:21;;;;;;;;;7.00;3.00;;;;;16.01;65.83;101647.66;5059186;28;45398;-66
2023/09/25 04:52:48;;;;;;;;;5.25;4.00;;;;;16.00;66.27;101640.53;5057414;28;45378;-66
2023/09/25 04:55:14;;;;;;;;;4.00;3.00;;;;;16.00;66.04;101645.03;5038634;28;46318;-66
2023/09/25 04:57:41;;;;;;;;;3.50;3.50;;;;;15.98;66.03;101645.09;5038495;28;45682;-66
2023/09/25 05:02:46;;;;;;;;;5.75;5.00;;;;;15.96;66.06;101638.91;5052879;28;45456;-66
2023/09/25 05:05:13;;;;;;;;;4.50;4.00;;;;;15.95;66.12;101647.91;5056625;28;46650;-66
2023/09/25 05:07:42;;;;;;;;;6.00;4.00;;;;;15.98;66.06;101655.00;5041446;28;45601;-66
2023/09/25 05:10:12;;;;;;;;;4.00;4.00;;;;;15.93;66.32;101642.59;5035436;28;45351;-66
2023/09/25 05:12:39;;;;;;;;;7.00;5.75;;;;;15.85;66.27;101635.75;5043128;28;45503;-66
2023/09/25 05:15:07;;;;;;;;;3.75;3.75;;;;;15.89;66.48;101654.44;5053705;28;45595;-65
2023/09/25 05:17:38;;;;;;;;;4.00;4.00;;;;;15.96;66.49;101665.84;5039278;28;45437;-66
2023/09/25 05:20:10;;;;;;;;;4.25;3.50;;;;;15.92;66.56;101657.00;5041871;28;45412;-66
2023/09/25 05:22:39;;;;;;;;;5.00;5.00;;;;;15.89;66.80;101657.13;5049492;28;45399;-66
2023/09/25 05:25:09;;;;;;;;;5.00;5.00;;;;;15.91;66.47;101663.31;5061578;28;46240;-66
2023/09/25 05:27:35;;;;;;;;;6.25;5.50;;;;;15.81;66.59;101644.91;5043766;28;45441;-66
2023/09/25 05:30:02;;;;;;;;;4.75;4.00;;;;;15.86;67.01;101662.63;5028179;28;45507;-66
2023/09/25 05:32:27;;;;;;;;;5.00;5.00;;;;;15.87;66.57;101664.41;5041181;28;45371;-66
2023/09/25 05:34:52;;;;;;;;;4.75;4.75;;;;;15.71;66.89;101628.22;5042514;28;45891;-66
2023/09/25 05:37:18;;;;;;;;;5.00;5.00;;;;;15.78;66.71;101650.41;5034607;28;45404;-66
2023/09/25 05:39:44;;;;;;;;;4.50;4.50;;;;;15.76;66.88;101641.53;5057124;28;45559;-65
2023/09/25 05:42:09;;;;;;;;;5.00;4.00;;;;;15.75;66.80;101640.59;5061582;28;45548;-65
2023/09/25 05:44:35;;;;;;;;;7.25;5.75;;;;;15.74;67.03;101637.03;5039311;28;58790;-65
2023/09/25 05:47:00;;;;;;;;;5.00;5.00;;;;;15.72;66.92;101635.38;5047853;28;45288;-66
2023/09/25 05:49:25;;;;;;;;;5.75;5.00;;;;;15.81;66.83;101661.06;5048339;28;45617;-66
2023/09/25 05:51:53;;;;;;;;;5.00;5.00;;;;;15.63;66.90;101633.03;5040846;28;45557;-65
2023/09/25 05:54:21;;;;;;;;;5.00;4.25;;;;;15.80;66.78;101679.00;5047842;28;48231;-66
2023/09/25 05:56:50;;;;;;;;;4.25;4.00;;;;;15.74;66.97;101672.03;5042483;28;45486;-65
2023/09/25 05:59:16;;;;;;;;;3.00;3.00;;;;;15.73;67.03;101674.78;5048595;28;45477;-66
2023/09/25 06:01:42;;;;;;;;;5.75;4.75;;;;;15.73;67.13;101685.56;5048396;28;45313;-66
2023/09/25 06:04:08;;;;;;;;;5.00;5.00;;;;;15.70;67.03;101680.28;5051606;28;46144;-66
2023/09/25 06:06:33;;;;;;;;;6.75;6.00;;;;;15.50;66.99;101646.06;5048585;28;45284;-65
2023/09/25 06:08:59;;;;;;;;;6.75;5.00;;;;;15.71;67.30;101688.31;5056804;28;45346;-66
2023/09/25 06:11:25;;;;;;;;;6.75;5.00;;;;;15.67;67.35;101685.78;5041134;28;45576;-66
2023/09/25 06:13:50;;;;;;;;;5.75;4.00;;;;;15.66;67.34;101684.03;5031637;28;46241;-65
2023/09/25 06:16:16;;;;;;;;;5.00;4.00;;;;;15.61;67.06;101677.97;5048196;28;45371;-65
2023/09/25 06:18:42;;;;;;;;;5.00;4.00;;;;;15.63;67.23;101687.72;5058630;28;45441;-65
2023/09/25 06:21:10;;;;;;;;;7.50;6.00;;;;;15.62;67.29;101687.78;5061028;28;45320;-65
2023/09/25 06:23:36;;;;;;;;;4.75;4.75;;;;;15.57;67.20;101680.78;5040416;28;46351;-65
2023/09/25 06:26:02;;;;;;;;;5.00;5.00;;;;;15.68;67.31;101698.31;5047207;28;45382;-65
2023/09/25 06:28:29;;;;;;;;;5.50;4.50;;;;;15.61;67.28;101678.84;5058115;28;45519;-65
2023/09/25 06:30:55;;;;;;;;;5.00;5.00;;;;;15.66;67.27;101689.44;5040434;28;45485;-65
2023/09/25 06:33:20;;;;;;;;;7.50;4.75;;;;;15.65;67.46;101695.72;5041687;28;45503;-65
2023/09/25 06:35:46;;;;;;;;;7.00;5.00;;;;;15.56;67.50;101684.38;5050150;28;45333;-65
2023/09/25 06:38:11;;;;;;;;;5.25;4.00;;;;;15.60;67.69;101690.53;5041652;28;45504;-65
2023/09/25 06:40:43;;;;;;;;;8.00;5.00;;;;;15.67;67.87;101704.63;5043601;28;46862;-64
2023/09/25 06:43:08;;;;;;;;;5.75;5.25;;;;;15.59;67.49;101691.47;5051796;28;45537;-64
2023/09/25 06:45:34;;;;;;;;;6.00;6.00;;;;;15.40;67.57;101655.44;5044663;28;45495;-64
2023/09/25 06:47:59;;;;;;;;;8.50;5.50;;;;;15.66;67.74;101695.69;5048678;28;55116;-64
2023/09/25 06:50:24;;;;;;;;;5.00;5.00;;;;;15.64;67.65;101685.94;5040485;28;45811;-64
2023/09/25 06:52:49;;;;;;;;;4.25;4.00;;;;;15.64;67.59;101689.47;5035806;28;53717;-64
2023/09/25 06:55:15;;;;;;;;;7.00;7.00;;;;;15.56;67.65;101675.44;5041088;28;45372;-64
2023/09/25 06:57:40;;;;;;;;;8.50;5.00;;;;;15.70;67.42;101696.44;5049327;28;45446;-64
2023/09/25 07:00:06;;;;;;;;;6.00;6.00;;;;;15.63;67.52;101678.78;5037194;28;45634;-64
2023/09/25 07:02:32;;;;;;;;;6.00;4.75;;;;;15.71;67.52;101696.38;5045184;28;45529;-64
2023/09/25 07:04:58;;;;;;;;;5.50;4.75;;;;;15.71;67.74;101706.28;5053217;28;45396;-64
2023/09/25 07:07:23;;;;;;;;;7.00;5.75;;;;;15.70;68.10;101707.19;5044919;28;45400;-64
2023/09/25 07:09:49;;;;;;;;;5.50;4.00;;;;;15.70;68.11;101709.88;5039702;28;45521;-64
2023/09/25 07:12:15;;;;;;;;;5.00;5.00;;;;;15.64;67.82;101700.25;5045042;28;45295;-64
2023/09/25 07:14:48;;;;;;;;;5.75;5.75;;;;;15.71;68.09;101719.72;5034935;28;46372;-64
2023/09/25 07:17:13;;;;;;;;;8.25;7.50;;;;;15.65;68.07;101706.50;5047310;28;45412;-66
2023/09/25 07:19:39;;;;;;;;;5.00;5.00;;;;;15.73;67.83;101717.84;5030048;28;45573;-64
2023/09/25 07:22:04;;;;;;;;;5.75;5.75;;;;;15.70;68.11;101716.19;5042839;28;52701;-64
2023/09/25 07:24:29;;;;;;;;;5.75;4.75;;;;;15.74;68.22;101708.84;5050760;28;45358;-64
2023/09/25 07:26:54;;;;;;;;;7.50;6.75;;;;;15.80;68.59;101718.53;5045120;28;45407;-64
2023/09/25 07:29:21;;;;;;;;;7.00;7.00;;;;;15.81;68.50;101715.78;5035047;28;45962;-64
2023/09/25 07:31:46;;;;;;;;;9.50;7.75;;;;;15.86;68.40;101718.31;5038692;28;45379;-64
2023/09/25 07:34:11;;;;;;;;;5.00;4.75;;;;;15.74;68.42;101693.56;5049102;28;45466;-64
2023/09/25 07:36:37;;;;;;;;;7.25;6.50;;;;;15.88;68.38;101705.66;5034171;28;45694;-64
2023/09/25 07:39:04;;;;;;;;;7.75;7.25;;;;;15.92;68.53;101713.56;5035688;28;45572;-64
2023/09/25 07:41:29;;;;;;;;;8.75;8.25;;;;;15.92;68.41;101702.78;5051821;28;45335;-64
2023/09/25 07:43:54;;;;;;;;;6.00;6.00;;;;;15.96;68.67;101710.75;5045946;28;46198;-63
2023/09/25 07:46:20;;;;;;;;;5.25;5.00;;;;;15.99;68.54;101721.38;5039251;28;45549;-64
2023/09/25 07:48:47;;;;;;;;;6.25;5.50;;;;;16.00;68.78;101712.38;5053683;28;45928;-64
2023/09/25 07:51:12;;;;;;;;;11.25;8.25;;;;;16.11;68.65;101727.16;5040553;28;45576;-64
2023/09/25 07:53:39;;;;;;;;;7.50;7.50;;;;;16.10;69.05;101713.75;5050490;28;45415;-64
2023/09/25 07:56:05;;;;;;;;;9.00;9.00;;;;;16.20;68.99;101720.50;5044276;28;45593;-64
2023/09/25 07:58:32;;;;;;;;;11.25;10.00;;;;;16.16;68.81;101701.88;5050786;28;45358;-64
2023/09/25 08:01:00;;;;;;;;;8.50;7.00;;;;;16.21;68.79;101702.56;5035320;28;47071;-64
2023/09/25 08:03:26;;;;;;;;;10.25;9.25;;;;;16.29;68.43;101720.16;5055225;28;45626;-64
2023/09/25 08:05:53;;;;;;;;;7.50;6.50;;;;;16.30;68.57;101705.75;5048792;28;45730;-65
2023/09/25 08:08:19;;;;;;;;;10.00;8.00;;;;;16.34;68.45;101716.38;5049335;28;45592;-64
2023/09/25 08:10:47;;;;;;;;;10.75;8.25;;;;;16.40;68.17;101725.09;5047330;28;46130;-62
2023/09/25 08:13:13;;;;;;;;;9.00;8.25;;;;;16.39;68.49;101717.06;5045793;28;45765;-63
2023/09/25 08:15:38;;;;;;;;;7.75;7.75;;;;;16.35;68.45;101701.97;5037295;28;45431;-64
2023/09/25 08:18:04;;;;;;;;;5.25;4.25;;;;;16.43;68.46;101713.31;5045125;28;45501;-65
2023/09/25 08:20:29;;;;;;;;;9.25;7.75;;;;;16.42;68.30;101715.16;5058893;28;45604;-65
2023/09/25 08:22:55;;;;;;;;;6.00;6.00;;;;;16.46;68.54;101718.59;5023168;28;45421;-65
2023/09/25 08:25:21;;;;;;;;;9.00;8.50;;;;;16.64;68.47;101741.22;5052519;28;45462;-64
2023/09/25 08:27:51;;;;;;;;;10.25;6.25;;;;;16.62;68.28;101730.50;5050761;28;45375;-64
2023/09/25 08:30:17;;;;;;;;;8.00;8.00;;;;;16.74;68.18;101729.09;5046115;28;47579;-65
2023/09/25 08:32:42;;;;;;;;;8.50;7.00;;;;;16.62;68.20;101694.53;5036281;28;45464;-65
2023/09/25 08:35:09;;;;;;;;;6.75;6.75;;;;;16.87;67.86;101725.88;5030243;28;45438;-65
2023/09/25 08:37:36;;;;;;;;;8.75;6.00;;;;;16.91;67.60;101723.00;5035374;28;46256;-65
2023/09/25 08:40:02;;;;;;;;;6.00;6.00;;;;;16.90;68.02;101720.38;5053669;28;45537;-65
2023/09/25 08:42:28;;;;;;;;;6.00;6.00;;;;;16.94;67.81;101717.47;5053205;28;45388;-66
2023/09/25 08:44:59;;;;;;;;;6.25;6.25;;;;;17.05;68.19;101733.19;5054712;28;45418;-65
2023/09/25 08:47:24;;;;;;;;;7.25;6.25;;;;;17.03;67.51;101718.88;5043013;28;45620;-66
2023/09/25 08:49:50;;;;;;;;;5.75;5.75;;;;;17.07;67.63;101719.63;5054081;28;45454;-65
2023/09/25 08:52:17;;;;;;;;;8.25;6.50;;;;;17.09;67.92;101712.34;5037105;28;45474;-66
2023/09/25 08:54:42;;;;;;;;;8.25;7.25;;;;;17.02;67.88;101695.53;5051424;28;45336;-66
2023/09/25 08:57:09;;;;;;;;;11.00;8.25;;;;;17.22;67.10;101725.22;5048667;28;45493;-66
2023/09/25 08:59:36;;;;;;;;;7.75;7.00;;;;;17.14;66.96;101711.19;5058275;28;45498;-64
2023/09/25 09:02:04;;;;;;;;;7.50;7.50;;;;;17.14;67.63;101694.13;5047437;28;45427;-67
2023/09/25 09:04:29;;;;;;;;;7.50;6.00;;;;;17.21;67.66;101699.19;5023700;28;45470;-70
2023/09/25 09:06:54;;;;;;;;;9.00;7.50;;;;;17.22;67.49;101691.94;5039526;28;45775;-70
2023/09/25 09:09:21;;;;;;;;;7.00;6.75;;;;;17.50;67.08;101723.09;5052349;28;45497;-73
2023/09/25 09:11:52;;;;;;;;;6.25;5.75;;;;;17.47;66.97;101712.44;5047121;28;45733;-73
2023/09/25 09:14:35;;;;;;;;;5.50;5.25;;;;;17.38;66.27;101689.44;5027894;28;45423;-73
2023/09/25 09:17:04;;;;;;;;;6.50;6.25;;;;;17.53;65.88;101707.63;5046536;28;45701;-70
2023/09/25 09:19:45;;;;;;;;;6.00;6.00;;;;;17.74;66.70;101732.75;5026246;28;47072;-70
2023/09/25 09:22:12;;;;;;;;;5.00;5.00;;;;;17.58;65.83;101707.41;5051499;28;45591;-70
2023/09/25 09:24:39;;;;;;;;;7.25;7.00;;;;;17.81;65.41;101737.84;5048202;28;45410;-70
2023/09/25 09:27:08;;;;;;;;;9.00;8.00;;;;;17.75;65.78;101715.59;5053191;28;45586;-70
2023/09/25 09:29:39;;;;;;;;;13.00;8.75;;;;;17.97;66.38;101747.03;5034935;28;48169;-70
2023/09/25 09:32:05;;;;;;;;;5.75;5.75;;;;;17.95;66.06;101724.63;5039322;28;45683;-70
2023/09/25 09:34:31;;;;;;;;;4.25;4.25;;;;;17.82;65.75;101701.81;5054474;28;45465;-71
2023/09/25 09:36:57;;;;;;;;;7.25;6.25;;;;;18.01;66.24;101727.03;5051955;28;45403;-70
2023/09/25 09:39:25;;;;;;;;;5.50;5.50;;;;;18.08;66.57;101727.63;5045089;28;46000;-70
2023/09/25 09:41:51;;;;;;;;;4.75;4.00;;;;;18.30;65.36;101751.75;5045636;28;45632;-70
2023/09/25 09:44:18;;;;;;;;;6.75;5.00;;;;;18.20;65.26;101718.03;5057792;28;45399;-70
2023/09/25 09:46:45;;;;;;;;;8.75;5.25;;;;;18.32;65.32;101725.53;5050988;28;45366;-71
2023/09/25 09:49:15;;;;;;;;;7.00;6.00;;;;;18.56;64.41;101749.59;5042595;28;45599;-70
2023/09/25 09:51:43;;;;;;;;;4.75;3.75;;;;;18.28;64.50;101689.69;5051917;28;45574;-70
2023/09/25 09:54:12;;;;;;;;;6.25;5.25;;;;;18.68;64.18;101749.00;5052185;28;45355;-70
2023/09/25 09:56:39;;;;;;;;;6.75;5.50;;;;;18.73;65.18;101741.53;5054968;28;45367;-70
2023/09/25 09:59:05;;;;;;;;;7.00;6.00;;;;;18.66;64.46;101718.44;5053210;28;45517;-71
2023/09/25 10:01:33;;;;;;;;;7.75;4.75;;;;;18.74;63.77;101728.88;5023081;28;45402;-71
2023/09/25 10:04:00;;;;;;;;;5.25;5.25;;;;;18.81;63.59;101733.00;5043421;28;45374;-71
2023/09/25 10:06:28;;;;;;;;;5.00;5.00;;;;;18.72;63.54;101704.59;5054073;28;45470;-71
2023/09/25 10:09:00;;;;;;;;;5.25;5.25;;;;;18.97;63.49;101743.94;5042074;28;45651;-71
2023/09/25 10:11:26;;;;;;;;;6.25;5.00;;;;;19.01;63.37;101750.94;5034356;28;45481;-75
2023/09/25 10:13:59;;;;;;;;;7.00;6.00;;;;;19.12;63.52;101755.81;5042367;28;45658;-76
2023/09/25 10:16:29;;;;;;;;;3.25;3.25;;;;;19.21;63.73;101764.31;5026254;28;45491;-71
2023/09/25 10:18:55;;;;;;;;;5.00;5.00;;;;;19.30;63.69;101762.97;5050685;28;47616;-71
2023/09/25 10:21:21;;;;;;;;;6.00;4.00;;;;;19.37;63.31;101750.84;5048508;28;45697;-71
2023/09/25 10:23:48;;;;;;;;;5.75;3.75;;;;;19.33;63.34;101727.59;5039962;28;45473;-72
2023/09/25 10:26:24;;;;;;;;;3.50;2.75;;;;;19.37;62.44;101717.47;5036187;28;46302;-73
2023/09/25 10:29:15;;;;;;;;;4.75;4.25;;;;;19.60;62.64;101746.03;5049750;28;45339;-71
2023/09/25 10:31:47;;;;;;;;;3.75;3.50;;;;;19.51;63.10;101725.75;5040609;28;45810;-71
2023/09/25 10:34:12;;;;;;;;;4.25;4.25;;;;;19.52;62.06;101722.06;5046735;28;45396;-71
2023/09/25 10:36:41;;;;;;;;;3.75;3.00;;;;;19.54;62.07;101725.56;5038378;28;45660;-71
2023/09/25 10:39:08;;;;;;;;;5.25;4.00;;;;;19.66;62.07;101736.69;5026645;28;46590;-71
2023/09/25 10:41:34;;;;;;;;;1.00;0.75;;;;;19.76;62.25;101738.84;5042556;28;45273;-70
2023/09/25 10:44:00;;;;;;;;;4.25;4.25;;;;;19.57;62.30;101697.44;5038015;28;45520;-69
2023/09/25 10:46:25;;;;;;;;;5.00;4.50;;;;;19.76;61.83;101719.00;5032838;28;45636;-73
2023/09/25 10:48:51;;;;;;;;;4.00;3.50;;;;;19.86;62.23;101725.63;5050852;28;46651;-73
2023/09/25 10:51:17;;;;;;;;;5.25;3.00;;;;;19.94;62.37;101717.09;5039984;28;45569;-73
2023/09/25 10:53:45;;;;;;;;;3.75;3.75;;;;;20.04;62.08;101731.88;5041996;28;45337;-74
2023/09/25 10:56:11;;;;;;;;;4.75;3.50;;;;;19.99;61.96;101707.72;5040284;28;45495;-73
2023/09/25 10:58:37;;;;;;;;;6.25;5.00;;;;;20.14;62.38;101702.41;5043093;28;47530;-74
2023/09/25 11:01:04;;;;;;;;;5.00;5.00;;;;;20.23;62.45;101699.19;5044632;28;45753;-71
2023/09/25 11:03:30;;;;;;;;;3.00;3.00;;;;;20.34;61.79;101707.53;5041199;28;45515;-71
2023/09/25 11:05:55;;;;;;;;;4.75;4.75;;;;;20.51;61.46;101725.56;5051651;28;45265;-71
2023/09/25 11:08:21;;;;;;;;;4.50;4.50;;;;;20.42;61.79;101717.09;5049116;28;45453;-71
2023/09/25 11:10:47;;;;;;;;;2.75;2.75;;;;;20.53;61.18;101730.88;5054058;28;45336;-71
2023/09/25 11:13:13;;;;;;;;;3.00;3.00;;;;;20.46;60.78;101708.66;5045553;28;45552;-71
2023/09/25 11:15:39;;;;;;;;;3.00;3.00;;;;;20.48;60.65;101705.84;5051998;28;45346;-71
2023/09/25 11:18:09;;;;;;;;;3.50;3.50;;;;;20.58;59.86;101712.50;5037034;28;47493;-71
2023/09/25 11:20:37;;;;;;;;;2.00;2.00;;;;;20.61;59.49;101714.16;5043059;28;45640;-72
2023/09/25 11:23:08;;;;;;;;;4.00;4.00;;;;;20.64;59.59;101708.59;5045046;28;45323;-71